createdAt,value
2017-12-10T00:00:57.232Z,85.27
2017-12-10T00:03:25.899Z,86.10
2017-12-10T00:05:55.366Z,87.00
2017-12-10T00:08:24.462Z,87.64
2017-12-10T00:10:53.150Z,88.30
2017-12-10T00:13:21.896Z,88.03
2017-12-10T00:15:50.661Z,88.86
2017-12-10T00:18:20.181Z,87.13
2017-12-10T00:20:48.891Z,86.68
2017-12-10T00:23:17.867Z,87.70
2017-12-10T00:25:46.586Z,87.53
2017-12-10T00:28:15.487Z,86.82
2017-12-10T00:30:44.270Z,87.47
2017-12-10T00:33:13.009Z,87.92
2017-12-10T00:35:42.506Z,88.59
2017-12-10T00:38:12.076Z,88.74
2017-12-10T00:40:40.862Z,88.48
2017-12-10T00:43:09.653Z,88.01
2017-12-10T00:45:38.843Z,87.22
2017-12-10T00:48:07.638Z,87.40
2017-12-10T00:50:36.337Z,86.49
2017-12-10T00:53:05.780Z,84.98
2017-12-10T00:55:34.498Z,83.82
2017-12-10T00:58:03.262Z,83.76
2017-12-10T01:00:32.133Z,83.29
2017-12-10T01:03:01.486Z,82.50
2017-12-10T01:05:30.217Z,82.08
2017-12-10T01:07:59.687Z,82.18
2017-12-10T01:10:28.380Z,83.11
2017-12-10T01:12:57.151Z,83.37
2017-12-10T01:15:25.886Z,83.07
2017-12-10T01:17:55.446Z,83.86
2017-12-10T01:20:24.174Z,84.94
2017-12-10T01:22:54.046Z,86.51
2017-12-10T01:25:22.783Z,85.58
2017-12-10T01:27:52.141Z,82.85
2017-12-10T01:30:21.297Z,80.54
2017-12-10T01:32:50.037Z,80.20
2017-12-10T01:35:19.533Z,83.01
2017-12-10T01:37:48.312Z,88.36
2017-12-10T01:40:17.040Z,91.23
2017-12-10T01:42:46.605Z,92.37
2017-12-10T01:45:15.597Z,92.80
2017-12-10T01:47:44.292Z,93.19
2017-12-10T01:50:13.010Z,93.52
2017-12-10T01:52:42.478Z,93.83
2017-12-10T01:55:11.223Z,93.57
2017-12-10T01:57:40.715Z,94.17
2017-12-10T02:00:10.634Z,94.53
2017-12-10T02:02:40.084Z,94.69
2017-12-10T02:05:08.887Z,94.76
2017-12-10T02:07:37.974Z,94.08
2017-12-10T02:10:06.764Z,93.53
2017-12-10T02:12:35.553Z,92.07
2017-12-10T02:15:06.789Z,91.24
2017-12-10T02:17:35.532Z,90.54
2017-12-10T02:20:05.000Z,90.88
2017-12-10T02:22:33.983Z,90.51
2017-12-10T02:25:02.768Z,91.56
2017-12-10T02:27:31.552Z,91.00
2017-12-10T02:30:00.548Z,90.50
2017-12-10T02:32:29.341Z,91.07
2017-12-10T02:34:58.027Z,91.32
2017-12-10T02:37:26.849Z,91.68
2017-12-10T02:39:56.422Z,93.03
2017-12-10T02:42:25.107Z,93.70
2017-12-10T02:44:54.151Z,93.67
2017-12-10T02:47:22.892Z,93.16
2017-12-10T02:49:51.609Z,93.23
2017-12-10T02:52:21.383Z,94.36
2017-12-10T02:54:50.129Z,94.67
2017-12-10T02:57:18.854Z,94.88
2017-12-10T02:59:47.808Z,94.17
2017-12-10T03:02:16.572Z,94.35
2017-12-10T03:04:45.428Z,94.69
2017-12-10T03:07:14.629Z,95.09
2017-12-10T03:09:43.261Z,95.78
2017-12-10T03:12:12.812Z,96.13
2017-12-10T03:14:41.706Z,96.46
2017-12-10T03:17:10.491Z,96.16
2017-12-10T03:19:39.221Z,96.05
2017-12-10T03:22:08.894Z,96.02
2017-12-10T03:24:37.635Z,94.57
2017-12-10T03:27:06.379Z,93.54
2017-12-10T03:29:35.420Z,91.49
2017-12-10T03:32:04.252Z,91.23
2017-12-10T03:34:32.938Z,90.60
2017-12-10T03:37:01.576Z,90.71
2017-12-10T03:39:31.023Z,90.19
2017-12-10T03:41:59.807Z,88.81
2017-12-10T03:44:28.603Z,89.54
2017-12-10T03:46:57.288Z,89.31
2017-12-10T03:49:25.916Z,89.92
2017-12-10T03:51:55.525Z,91.11
2017-12-10T03:54:25.080Z,91.71
2017-12-10T03:56:53.875Z,92.39
2017-12-10T03:59:22.582Z,93.19
2017-12-10T04:01:51.247Z,92.88
2017-12-10T04:04:19.837Z,92.08
2017-12-10T04:06:48.816Z,91.52
2017-12-10T04:09:17.611Z,90.52
2017-12-10T04:11:46.344Z,90.35
2017-12-10T04:14:15.795Z,89.15
2017-12-10T04:16:44.585Z,89.72
2017-12-10T04:19:13.432Z,88.58
2017-12-10T04:21:42.889Z,88.52
2017-12-10T04:24:11.570Z,88.30
2017-12-10T04:26:40.246Z,87.94
2017-12-10T04:29:09.250Z,87.27
2017-12-10T04:31:37.844Z,87.63
2017-12-10T04:34:06.621Z,88.11
2017-12-10T04:36:35.669Z,88.05
2017-12-10T04:39:04.398Z,86.61
2017-12-10T04:41:33.183Z,85.95
2017-12-10T04:44:01.979Z,86.35
2017-12-10T04:46:30.664Z,87.17
2017-12-10T04:48:59.336Z,85.52
2017-12-10T04:51:28.074Z,85.01
2017-12-10T04:53:57.588Z,85.07
2017-12-10T04:56:27.141Z,83.63
2017-12-10T04:58:56.037Z,84.23
2017-12-10T05:01:24.820Z,84.50
2017-12-10T05:03:53.616Z,84.58
2017-12-10T05:06:22.301Z,83.81
2017-12-10T05:08:51.087Z,84.69
2017-12-10T05:11:19.871Z,84.27
2017-12-10T05:13:48.863Z,84.51
2017-12-10T05:16:17.595Z,84.33
2017-12-10T05:18:46.316Z,83.70
2017-12-10T05:21:15.778Z,83.43
2017-12-10T05:23:44.563Z,82.10
2017-12-10T05:26:13.164Z,81.99
2017-12-10T05:28:41.986Z,81.18
2017-12-10T05:31:11.479Z,81.58
2017-12-10T05:33:40.993Z,81.20
2017-12-10T05:36:10.855Z,81.51
2017-12-10T05:38:39.651Z,80.86
2017-12-10T05:41:08.329Z,79.48
2017-12-10T05:43:37.263Z,78.99
2017-12-10T05:46:06.736Z,78.62
2017-12-10T05:48:35.477Z,77.31
2017-12-10T05:51:04.344Z,75.41
2017-12-10T05:53:33.808Z,76.27
2017-12-10T05:56:02.502Z,75.78
2017-12-10T05:58:31.322Z,74.62
2017-12-10T06:01:00.836Z,74.54
2017-12-10T06:03:30.393Z,72.96
2017-12-10T06:05:59.289Z,73.12
2017-12-10T06:08:28.016Z,71.75
2017-12-10T06:10:57.482Z,74.26
2017-12-10T06:13:27.901Z,74.20
2017-12-10T06:15:56.590Z,72.68
2017-12-10T06:18:25.979Z,70.93
2017-12-10T06:20:54.777Z,71.74
2017-12-10T06:23:23.522Z,71.20
2017-12-10T06:25:52.253Z,73.94
2017-12-10T06:28:21.344Z,73.28
2017-12-10T06:30:50.064Z,72.79
2017-12-10T06:33:18.817Z,72.03
2017-12-10T06:35:47.559Z,73.07
2017-12-10T06:38:17.051Z,73.67
2017-12-10T06:40:46.392Z,72.40
2017-12-10T06:43:15.413Z,72.17
2017-12-10T06:45:44.030Z,72.09
2017-12-10T06:48:13.543Z,72.79
2017-12-10T06:50:43.105Z,70.97
2017-12-10T06:53:11.829Z,70.65
2017-12-10T06:55:40.520Z,68.98
2017-12-10T06:58:09.992Z,66.66
2017-12-10T07:00:38.879Z,67.17
2017-12-10T07:03:08.029Z,65.51
2017-12-10T07:05:36.756Z,66.57
2017-12-10T07:08:05.550Z,66.58
2017-12-10T07:10:34.643Z,63.66
2017-12-10T07:13:03.371Z,63.91
2017-12-10T07:15:32.837Z,62.83
2017-12-10T07:18:01.719Z,62.80
2017-12-10T07:20:30.516Z,62.50
2017-12-10T07:22:59.241Z,63.58
2017-12-10T07:25:27.960Z,60.80
2017-12-10T07:27:56.676Z,61.00
2017-12-10T07:30:26.189Z,59.60
2017-12-10T07:32:55.744Z,59.03
2017-12-10T07:35:24.475Z,59.45
2017-12-10T07:37:53.947Z,58.63
2017-12-10T07:40:22.689Z,58.54
2017-12-10T07:42:51.410Z,58.78
2017-12-10T07:45:20.147Z,58.96
2017-12-10T07:47:50.172Z,58.07
2017-12-10T07:50:19.003Z,58.53
2017-12-10T07:52:47.698Z,59.39
2017-12-10T07:55:16.584Z,56.37
2017-12-10T07:57:45.269Z,57.81
2017-12-10T08:00:13.929Z,57.63
2017-12-10T08:02:42.942Z,56.44
2017-12-10T08:05:11.761Z,56.02
2017-12-10T08:07:40.421Z,55.28
2017-12-10T08:10:10.395Z,55.38
2017-12-10T08:12:39.892Z,54.49
2017-12-10T08:15:09.548Z,53.76
2017-12-10T08:17:39.265Z,53.21
2017-12-10T08:20:08.050Z,52.79
2017-12-10T08:22:36.736Z,53.73
2017-12-10T08:25:05.630Z,52.17
2017-12-10T08:27:34.306Z,51.87
2017-12-10T08:30:03.101Z,52.02
2017-12-10T08:32:31.927Z,53.05
2017-12-10T08:35:01.425Z,52.41
2017-12-10T08:37:30.897Z,51.35
2017-12-10T08:39:59.633Z,51.29
2017-12-10T08:42:29.098Z,51.16
2017-12-10T08:44:57.816Z,51.11
2017-12-10T08:47:27.490Z,52.65
2017-12-10T08:49:56.175Z,51.81
2017-12-10T08:52:24.897Z,50.99
2017-12-10T08:54:54.666Z,52.17
2017-12-10T08:57:23.461Z,52.03
2017-12-10T08:59:52.247Z,50.80
2017-12-10T09:02:20.943Z,50.82
2017-12-10T09:04:49.717Z,50.33
2017-12-10T09:07:18.448Z,47.44
2017-12-10T09:09:48.317Z,48.04
2017-12-10T09:12:17.112Z,47.62
2017-12-10T09:14:45.798Z,47.06
2017-12-10T09:17:14.633Z,46.02
2017-12-10T09:19:44.081Z,45.49
2017-12-10T09:22:12.832Z,44.78
2017-12-10T09:24:41.575Z,45.09
2017-12-10T09:27:10.350Z,44.95
2017-12-10T09:29:39.082Z,44.37
2017-12-10T09:32:08.636Z,45.22
2017-12-10T09:34:37.213Z,44.11
2017-12-10T09:37:05.963Z,44.86
2017-12-10T09:39:35.927Z,43.46
2017-12-10T09:42:05.421Z,45.43
2017-12-10T09:44:34.898Z,43.96
2017-12-10T09:47:03.832Z,43.75
2017-12-10T09:49:33.298Z,44.12
2017-12-10T09:52:01.989Z,44.41
2017-12-10T09:54:30.774Z,44.95
2017-12-10T09:59:50.629Z,45.43
2017-12-10T10:02:19.359Z,45.94
2017-12-10T10:04:48.104Z,45.97
2017-12-10T10:07:16.936Z,45.23
2017-12-10T10:09:45.720Z,46.18
2017-12-10T10:12:14.454Z,47.29
2017-12-10T10:14:43.925Z,45.97
2017-12-10T10:17:12.549Z,44.99
2017-12-10T10:19:42.109Z,46.57
2017-12-10T10:22:11.102Z,46.92
2017-12-10T10:24:39.818Z,46.20
2017-12-10T10:27:09.284Z,46.10
2017-12-10T10:29:38.283Z,46.21
2017-12-10T10:32:06.964Z,46.17
2017-12-10T10:34:35.661Z,46.19
2017-12-10T10:37:04.702Z,45.56
2017-12-10T10:39:34.251Z,45.00
2017-12-10T10:42:03.046Z,46.10
2017-12-10T10:44:31.732Z,45.93
2017-12-10T10:47:00.418Z,45.33
2017-12-10T10:49:29.203Z,45.38
2017-12-10T10:51:58.294Z,44.33
2017-12-10T10:54:27.026Z,45.05
2017-12-10T10:56:56.652Z,45.57
2017-12-10T10:59:25.540Z,45.76
2017-12-10T11:01:54.265Z,45.52
2017-12-10T11:04:23.062Z,45.86
2017-12-10T11:06:53.028Z,45.72
2017-12-10T11:09:21.761Z,45.34
2017-12-10T11:11:50.502Z,46.01
2017-12-10T11:14:19.292Z,44.88
2017-12-10T11:16:48.839Z,47.30
2017-12-10T11:19:17.634Z,45.27
2017-12-10T11:21:46.673Z,46.26
2017-12-10T11:24:16.027Z,45.73
2017-12-10T11:26:44.812Z,46.76
2017-12-10T11:29:13.606Z,46.75
2017-12-10T11:31:42.392Z,45.68
2017-12-10T11:34:11.184Z,46.80
2017-12-10T11:36:39.899Z,46.15
2017-12-10T11:39:08.592Z,44.91
2017-12-10T11:41:38.063Z,44.90
2017-12-10T11:44:07.148Z,44.83
2017-12-10T11:46:35.943Z,44.91
2017-12-10T11:49:04.666Z,45.52
2017-12-10T11:51:34.072Z,45.38
2017-12-10T11:54:03.578Z,44.85
2017-12-10T11:56:33.451Z,46.25
2017-12-10T11:59:02.643Z,44.65
2017-12-10T12:01:31.333Z,44.23
2017-12-10T12:04:00.068Z,45.42
2017-12-10T12:06:29.731Z,44.29
2017-12-10T12:08:58.456Z,45.25
2017-12-10T12:11:28.023Z,45.02
2017-12-10T12:13:56.812Z,44.25
2017-12-10T12:16:25.437Z,44.30
2017-12-10T12:18:54.949Z,43.87
2017-12-10T12:21:23.690Z,43.92
2017-12-10T12:23:52.531Z,44.78
2017-12-10T12:26:21.984Z,43.90
2017-12-10T12:28:50.868Z,45.55
2017-12-10T12:31:20.342Z,44.33
2017-12-10T12:33:49.078Z,43.68
2017-12-10T12:36:18.556Z,44.11
2017-12-10T12:38:47.267Z,45.36
2017-12-10T12:41:16.733Z,44.34
2017-12-10T12:43:45.418Z,43.89
2017-12-10T12:46:14.144Z,43.38
2017-12-10T12:48:42.860Z,43.57
2017-12-10T12:51:11.904Z,44.31
2017-12-10T12:53:41.368Z,44.44
2017-12-10T12:56:10.086Z,44.56
2017-12-10T12:58:38.830Z,43.97
2017-12-10T13:01:07.575Z,44.74
2017-12-10T13:03:37.092Z,44.78
2017-12-10T13:06:06.003Z,43.20
2017-12-10T13:08:34.705Z,43.37
2017-12-10T13:11:03.392Z,43.43
2017-12-10T13:13:32.285Z,43.74
2017-12-10T13:16:00.981Z,43.05
2017-12-10T13:18:29.702Z,41.97
2017-12-10T13:20:59.412Z,41.68
2017-12-10T13:23:28.883Z,42.24
2017-12-10T13:25:57.753Z,43.31
2017-12-10T13:28:26.921Z,42.60
2017-12-10T13:30:55.684Z,42.41
2017-12-10T13:33:25.149Z,42.43
2017-12-10T13:35:53.846Z,43.12
2017-12-10T13:38:22.564Z,42.27
2017-12-10T13:40:52.033Z,44.47
2017-12-10T13:43:21.013Z,46.25
2017-12-10T13:45:49.743Z,46.44
2017-12-10T13:48:19.206Z,47.18
2017-12-10T13:50:48.308Z,43.06
2017-12-10T13:53:17.045Z,43.23
2017-12-10T13:55:46.534Z,41.64
2017-12-10T13:58:15.999Z,42.08
2017-12-10T14:00:44.613Z,42.84
2017-12-10T14:03:14.194Z,45.01
2017-12-10T14:05:42.979Z,46.57
2017-12-10T14:08:11.674Z,44.00
2017-12-10T14:10:41.238Z,44.39
2017-12-10T14:13:10.231Z,43.98
2017-12-10T14:15:39.026Z,43.05
2017-12-10T14:18:07.745Z,41.93
2017-12-10T14:20:36.772Z,42.65
2017-12-10T14:23:05.505Z,43.97
2017-12-10T14:25:34.980Z,45.07
2017-12-10T14:28:04.039Z,47.62
2017-12-10T14:30:32.856Z,49.41
2017-12-10T14:33:01.597Z,51.07
2017-12-10T14:35:31.457Z,51.14
2017-12-10T14:38:00.268Z,51.29
2017-12-10T14:40:29.028Z,52.72
2017-12-10T14:42:57.868Z,52.82
2017-12-10T14:45:27.550Z,53.70
2017-12-10T14:47:56.228Z,55.20
2017-12-10T14:50:25.057Z,56.07
2017-12-10T14:52:54.648Z,56.01
2017-12-10T14:55:24.224Z,55.39
2017-12-10T14:57:53.117Z,55.64
2017-12-10T15:00:21.903Z,55.86
2017-12-10T15:02:50.687Z,54.97
2017-12-10T15:05:19.629Z,54.78
2017-12-10T15:07:50.389Z,53.92
2017-12-10T15:10:20.333Z,52.62
2017-12-10T15:12:48.941Z,51.75
2017-12-10T15:15:17.704Z,51.19
2017-12-10T15:17:46.743Z,50.53
2017-12-10T15:20:16.211Z,49.65
2017-12-10T15:22:44.977Z,49.95
2017-12-10T15:25:14.081Z,50.83
2017-12-10T15:27:42.876Z,56.45
2017-12-10T15:30:11.760Z,58.47
2017-12-10T15:32:42.259Z,56.58
2017-12-10T15:35:10.919Z,55.13
2017-12-10T15:37:39.610Z,53.57
2017-12-10T15:40:08.494Z,50.91
2017-12-10T15:42:37.188Z,49.59
2017-12-10T15:45:05.976Z,49.43
2017-12-10T15:47:34.746Z,49.65
2017-12-10T15:50:03.544Z,50.02
2017-12-10T15:52:32.340Z,55.79
2017-12-10T15:55:01.381Z,57.29
2017-12-10T15:57:30.844Z,56.67
2017-12-10T15:59:59.563Z,56.41
2017-12-10T16:02:28.665Z,56.23
2017-12-10T16:04:57.271Z,56.51
2017-12-10T16:07:26.019Z,56.01
2017-12-10T16:09:55.710Z,55.00
2017-12-10T16:12:24.337Z,53.97
2017-12-10T16:14:53.070Z,54.15
2017-12-10T16:17:22.637Z,54.97
2017-12-10T16:19:51.332Z,55.50
2017-12-10T16:22:20.050Z,56.38
2017-12-10T16:24:49.610Z,56.08
2017-12-10T16:27:18.394Z,55.84
2017-12-10T16:29:47.189Z,57.71
2017-12-10T16:32:15.974Z,60.85
2017-12-10T16:34:44.666Z,63.26
2017-12-10T16:37:13.404Z,63.47
2017-12-10T16:39:42.241Z,63.53
2017-12-10T16:42:11.025Z,63.17
2017-12-10T16:44:39.757Z,63.43
2017-12-10T16:47:09.599Z,63.01
2017-12-10T16:49:38.410Z,62.49
2017-12-10T16:52:07.173Z,61.43
2017-12-10T16:54:36.026Z,60.52
2017-12-10T16:57:04.742Z,61.21
2017-12-10T16:59:33.464Z,63.24
2017-12-10T17:02:02.564Z,65.51
2017-12-10T17:04:31.250Z,67.22
2017-12-10T17:07:00.036Z,68.12
2017-12-10T17:09:28.921Z,69.09
2017-12-10T17:11:57.651Z,69.55
2017-12-10T17:14:27.224Z,69.91
2017-12-10T17:16:56.261Z,70.49
2017-12-10T17:19:25.775Z,71.14
2017-12-10T17:21:55.321Z,71.72
2017-12-10T17:24:24.223Z,71.15
2017-12-10T17:26:52.902Z,71.15
2017-12-10T17:29:21.686Z,70.78
2017-12-10T17:31:50.738Z,70.59
2017-12-10T17:34:20.192Z,70.55
2017-12-10T17:36:49.133Z,71.34
2017-12-10T17:39:17.869Z,72.27
2017-12-10T17:41:46.651Z,73.21
2017-12-10T17:44:15.354Z,74.29
2017-12-10T17:46:44.172Z,74.46
2017-12-10T17:49:13.739Z,74.84
2017-12-10T17:51:42.425Z,75.39
2017-12-10T17:54:11.211Z,75.73
2017-12-10T17:56:39.951Z,75.95
2017-12-10T17:59:08.670Z,76.97
2017-12-10T18:01:37.576Z,78.11
2017-12-10T18:04:06.296Z,78.34
2017-12-10T18:06:36.463Z,78.27
2017-12-10T18:09:06.299Z,78.54
2017-12-10T18:11:36.059Z,78.62
2017-12-10T18:14:06.537Z,79.06
2017-12-10T18:16:35.221Z,78.80
2017-12-10T18:19:03.952Z,78.83
2017-12-10T18:21:33.822Z,78.43
2017-12-10T18:24:02.606Z,78.83
2017-12-10T18:26:31.326Z,80.17
2017-12-10T18:29:00.343Z,80.80
2017-12-10T18:31:29.796Z,81.30
2017-12-10T18:33:58.580Z,81.74
2017-12-10T18:36:27.750Z,81.02
2017-12-10T18:38:56.468Z,80.45
2017-12-10T18:41:26.041Z,79.52
2017-12-10T18:43:55.922Z,79.92
2017-12-10T18:46:24.621Z,80.50
2017-12-10T18:48:53.394Z,80.44
2017-12-10T18:51:22.176Z,80.38
2017-12-10T18:53:50.921Z,81.14
2017-12-10T18:56:20.373Z,82.18
2017-12-10T18:58:49.160Z,82.81
2017-12-10T19:01:17.897Z,83.58
2017-12-10T19:03:47.369Z,84.69
2017-12-10T19:06:16.040Z,84.90
2017-12-10T19:08:44.779Z,84.60
2017-12-10T19:11:13.617Z,84.56
2017-12-10T19:13:42.586Z,83.74
2017-12-10T19:16:11.395Z,83.79
2017-12-10T19:18:40.181Z,84.04
2017-12-10T19:21:08.975Z,84.76
2017-12-10T19:23:37.661Z,85.34
2017-12-10T19:26:06.446Z,86.31
2017-12-10T19:28:35.420Z,86.86
2017-12-10T19:31:04.223Z,87.24
2017-12-10T19:33:32.977Z,87.55
2017-12-10T19:36:01.705Z,87.93
2017-12-10T19:38:31.005Z,87.73
2017-12-10T19:40:59.734Z,86.41
2017-12-10T19:43:29.398Z,85.78
2017-12-10T19:45:58.119Z,86.13
2017-12-10T19:48:27.636Z,87.70
2017-12-10T19:50:57.330Z,87.49
2017-12-10T19:53:26.906Z,87.58
2017-12-10T19:55:55.639Z,88.32
2017-12-10T19:58:25.336Z,88.03
2017-12-10T20:00:54.905Z,87.68
2017-12-10T20:03:23.705Z,87.99
2017-12-10T20:05:52.489Z,89.10
2017-12-10T20:08:21.227Z,89.76
2017-12-10T20:10:49.992Z,90.20
2017-12-10T20:13:18.850Z,89.80
2017-12-10T20:15:47.761Z,89.75
2017-12-10T20:18:16.523Z,90.01
2017-12-10T20:20:45.620Z,90.70
2017-12-10T20:23:14.415Z,90.87
2017-12-10T20:25:43.205Z,91.22
2017-12-10T20:28:12.292Z,90.39
2017-12-10T20:30:41.008Z,89.58
2017-12-10T20:33:09.773Z,88.38
2017-12-10T20:35:38.561Z,88.01
2017-12-10T20:38:07.514Z,88.67
2017-12-10T20:40:36.257Z,90.49
2017-12-10T20:43:05.538Z,91.33
2017-12-10T20:45:34.323Z,91.71
2017-12-10T20:48:03.117Z,91.60
2017-12-10T20:50:32.048Z,91.86
2017-12-10T20:53:01.441Z,92.81
2017-12-10T20:55:30.909Z,93.30
2017-12-10T20:57:59.802Z,93.05
2017-12-10T21:00:28.558Z,91.96
2017-12-10T21:02:57.382Z,91.89
2017-12-10T21:05:26.433Z,91.86
2017-12-10T21:07:55.259Z,92.11
2017-12-10T21:10:23.990Z,92.43
2017-12-10T21:12:53.552Z,92.75
2017-12-10T21:15:22.348Z,92.76
2017-12-10T21:17:51.133Z,93.15
2017-12-10T21:20:20.224Z,93.14
2017-12-10T21:22:48.927Z,92.88
2017-12-10T21:25:17.597Z,92.64
2017-12-10T21:27:46.466Z,92.62
2017-12-10T21:30:15.159Z,92.73
2017-12-10T21:32:43.876Z,92.78
2017-12-10T21:35:13.877Z,91.35
2017-12-10T21:37:42.583Z,90.84
2017-12-10T21:40:11.359Z,90.82
2017-12-10T21:42:40.196Z,89.50
2017-12-10T21:45:08.889Z,88.82
2017-12-10T21:47:37.532Z,89.41
2017-12-10T21:50:06.605Z,90.72
2017-12-10T21:52:35.400Z,91.16
2017-12-10T21:55:04.134Z,90.75
2017-12-10T21:57:33.688Z,90.61
2017-12-10T22:00:02.421Z,89.76
2017-12-10T22:02:31.987Z,89.73
2017-12-10T22:05:01.074Z,89.48
2017-12-10T22:07:29.822Z,90.49
2017-12-10T22:09:58.464Z,90.75
2017-12-10T22:12:27.542Z,91.15
2017-12-10T22:14:56.156Z,92.44
2017-12-10T22:17:24.868Z,92.24
2017-12-10T22:19:54.485Z,92.03
2017-12-10T22:22:23.153Z,93.02
2017-12-10T22:24:52.670Z,93.91
2017-12-10T22:27:22.172Z,95.17
2017-12-10T22:29:51.681Z,94.97
2017-12-10T22:32:20.373Z,93.79
2017-12-10T22:34:49.240Z,92.47
2017-12-10T22:37:18.088Z,92.13
2017-12-10T22:39:46.717Z,91.52
2017-12-10T22:42:16.486Z,91.90
2017-12-10T22:44:45.132Z,92.52
2017-12-10T22:47:13.877Z,92.18
2017-12-10T22:49:42.647Z,91.66
2017-12-10T22:52:11.363Z,91.98
2017-12-10T22:54:41.554Z,92.08
2017-12-10T22:57:10.499Z,92.16
2017-12-10T22:59:39.916Z,92.01
2017-12-10T23:02:08.667Z,92.01
2017-12-10T23:04:38.202Z,92.01
2017-12-10T23:07:06.926Z,92.24
2017-12-10T23:09:35.511Z,92.44
2017-12-10T23:12:04.554Z,92.67
2017-12-10T23:14:41.746Z,92.88
2017-12-10T23:17:10.541Z,92.75
2017-12-10T23:19:39.265Z,92.83
2017-12-10T23:22:07.844Z,92.87
2017-12-10T23:24:36.736Z,92.86
2017-12-10T23:27:05.381Z,92.53
2017-12-10T23:29:34.828Z,92.23
2017-12-10T23:32:03.545Z,91.04
2017-12-10T23:34:33.125Z,90.69
2017-12-10T23:37:01.813Z,90.40
2017-12-10T23:39:30.803Z,90.04
2017-12-10T23:41:59.587Z,89.54
2017-12-10T23:44:28.292Z,89.61
2017-12-10T23:46:57.022Z,89.97
2017-12-10T23:49:26.472Z,90.12
2017-12-10T23:51:55.161Z,90.47
2017-12-10T23:54:24.207Z,91.19
2017-12-10T23:56:52.896Z,91.21
2017-12-10T23:59:21.563Z,91.30
